Terminal Aerodrome Forecast
Issued by NWS

Home | Current Version | Previous Version | Text Only | Print | Product List | Glossary On
Versions: 1 2 3 4 5 6 7 8 9 10 11 12 13 14
000
FTAK31 PAJN 290500
TAFAJN
TAF
PAJN 290521Z 2906/3006 VRB06KT P6SM SKC
     FM290900 00000KT P6SM SKC
     FM291600 24010KT P6SM SKC
     FM300400 24004KT P6SM SKC=

USA.gov is the U.S. government's official web portal to all federal, state and local government web resources and services.